createdAt,value
2022-12-31T00:03:01.497Z,83.73
2022-12-31T00:09:06.852Z,87.09
2022-12-31T00:15:09.283Z,79.30
2022-12-31T00:21:12.745Z,78.11
2022-12-31T00:27:15.284Z,86.15
2022-12-31T00:33:18.931Z,81.06
2022-12-31T00:39:21.150Z,84.75
2022-12-31T00:45:24.609Z,85.06
2022-12-31T00:51:31.082Z,81.23
2022-12-31T00:57:33.519Z,81.22
2022-12-31T01:03:36.029Z,79.32
2022-12-31T01:09:38.459Z,85.01
2022-12-31T01:15:40.995Z,83.05
2022-12-31T01:21:44.398Z,81.06
2022-12-31T01:27:46.846Z,78.42
2022-12-31T01:33:49.305Z,83.02
2022-12-31T01:39:51.819Z,85.75
2022-12-31T01:45:55.370Z,80.10
2022-12-31T01:52:03.783Z,78.31
2022-12-31T01:58:12.275Z,78.96
2022-12-31T02:04:16.096Z,79.00
2022-12-31T02:10:18.239Z,77.48
2022-12-31T02:16:32.758Z,77.59
2022-12-31T02:23:03.420Z,77.62
2022-12-31T02:29:29.844Z,78.89
2022-12-31T02:35:49.357Z,82.40
2022-12-31T02:41:52.086Z,78.22
2022-12-31T02:48:06.447Z,79.59
2022-12-31T02:54:38.011Z,79.11
2022-12-31T03:01:05.724Z,78.74
2022-12-31T03:07:23.129Z,82.33
2022-12-31T03:13:25.559Z,81.83
2022-12-31T03:19:46.088Z,81.43
2022-12-31T03:25:48.569Z,79.85
2022-12-31T03:31:51.074Z,78.95
2022-12-31T03:37:54.472Z,82.82
2022-12-31T03:43:56.991Z,85.07
2022-12-31T03:49:59.443Z,79.48
2022-12-31T03:56:01.873Z,79.14
2022-12-31T04:02:04.488Z,78.99
2022-12-31T04:08:07.448Z,78.57
2022-12-31T04:14:10.307Z,82.65
2022-12-31T04:20:12.761Z,83.25
2022-12-31T04:26:14.737Z,81.05
2022-12-31T04:32:16.703Z,82.57
2022-12-31T04:38:18.563Z,81.67
2022-12-31T04:44:20.799Z,81.58
2022-12-31T04:50:22.566Z,81.64
2022-12-31T04:56:25.576Z,81.50
2022-12-31T05:02:28.129Z,82.14
2022-12-31T05:08:31.495Z,80.00
2022-12-31T05:14:33.953Z,84.99
2022-12-31T05:20:36.393Z,82.72
2022-12-31T05:26:38.178Z,79.89
2022-12-31T05:32:40.347Z,86.90
2022-12-31T05:38:42.790Z,88.48
2022-12-31T05:44:45.239Z,88.03
2022-12-31T05:50:47.730Z,83.45
2022-12-31T05:56:49.788Z,83.92
2022-12-31T06:02:51.736Z,86.72
2022-12-31T06:08:53.601Z,82.73
2022-12-31T06:14:57.648Z,82.43
2022-12-31T06:21:00.053Z,79.63
2022-12-31T06:27:02.507Z,79.96
2022-12-31T06:33:07.283Z,79.04
2022-12-31T06:39:09.469Z,79.38
2022-12-31T06:45:11.955Z,78.91
2022-12-31T06:51:20.414Z,82.96
2022-12-31T06:57:23.912Z,81.39
2022-12-31T07:03:57.529Z,81.06
2022-12-31T07:10:41.135Z,82.02
2022-12-31T07:17:09.695Z,82.33
2022-12-31T07:23:12.173Z,82.83
2022-12-31T07:29:28.666Z,83.25
2022-12-31T07:35:55.241Z,82.14
2022-12-31T07:42:53.952Z,82.10
2022-12-31T07:48:56.483Z,81.36
2022-12-31T07:54:58.863Z,80.31
2022-12-31T08:01:02.483Z,79.86
2022-12-31T08:07:17.850Z,79.49
2022-12-31T08:13:19.910Z,78.47
2022-12-31T08:19:28.811Z,78.69
2022-12-31T08:26:09.214Z,78.80
2022-12-31T08:32:23.943Z,79.48
2022-12-31T08:38:50.481Z,78.66
2022-12-31T08:45:11.027Z,78.16
2022-12-31T08:51:21.536Z,80.50
2022-12-31T08:57:40.038Z,79.01
2022-12-31T09:04:23.687Z,78.99
2022-12-31T09:10:34.912Z,77.35
2022-12-31T09:16:44.684Z,76.12
2022-12-31T09:22:47.118Z,75.66
2022-12-31T09:28:57.589Z,74.99
2022-12-31T09:35:35.210Z,74.51
2022-12-31T09:42:25.863Z,74.15
2022-12-31T09:49:27.564Z,73.72
2022-12-31T09:55:37.074Z,73.48
2022-12-31T10:01:56.704Z,72.83
2022-12-31T10:07:59.055Z,71.98
2022-12-31T10:14:32.664Z,71.72
2022-12-31T10:21:05.222Z,71.06
2022-12-31T10:27:33.839Z,70.50
2022-12-31T10:33:48.348Z,71.31
2022-12-31T10:40:18.936Z,71.69
2022-12-31T10:46:48.531Z,70.96
2022-12-31T10:53:16.080Z,71.65
2022-12-31T10:59:44.985Z,71.20
2022-12-31T11:05:47.113Z,67.87
2022-12-31T11:12:10.650Z,67.20
2022-12-31T11:18:23.184Z,65.75
2022-12-31T11:24:26.622Z,64.03
2022-12-31T11:30:39.197Z,65.45
2022-12-31T11:36:52.664Z,63.62
2022-12-31T11:43:12.255Z,61.11
2022-12-31T11:49:43.801Z,60.75
2022-12-31T11:56:02.742Z,59.08
2022-12-31T12:02:18.438Z,57.91
2022-12-31T12:08:21.359Z,57.63
2022-12-31T12:14:41.872Z,58.98
2022-12-31T12:20:47.318Z,57.36
2022-12-31T12:26:52.813Z,57.39
2022-12-31T12:33:01.938Z,56.32
2022-12-31T12:39:07.409Z,56.24
2022-12-31T12:45:18.842Z,56.97
2022-12-31T12:51:26.930Z,56.34
2022-12-31T12:57:42.396Z,56.32
2022-12-31T13:04:32.926Z,57.36
2022-12-31T13:10:29.388Z,57.07
2022-12-31T13:16:37.890Z,56.03
2022-12-31T13:22:50.367Z,57.08
2022-12-31T13:28:53.795Z,57.58
2022-12-31T13:35:03.317Z,59.04
2022-12-31T13:41:28.850Z,59.16
2022-12-31T13:47:39.572Z,59.37
2022-12-31T13:54:04.928Z,60.37
2022-12-31T14:00:21.391Z,61.27
2022-12-31T14:06:35.930Z,61.17
2022-12-31T14:13:00.519Z,62.32
2022-12-31T14:19:32.478Z,64.10
2022-12-31T14:25:47.540Z,64.24
2022-12-31T14:31:50.085Z,64.12
2022-12-31T14:38:06.523Z,64.96
2022-12-31T14:44:37.119Z,64.93
2022-12-31T14:50:39.551Z,66.44
2022-12-31T14:56:46.075Z,66.50
2022-12-31T15:02:53.415Z,67.36
2022-12-31T15:09:31.138Z,67.38
2022-12-31T15:15:55.694Z,68.32
2022-12-31T15:22:34.327Z,67.65
2022-12-31T15:28:39.807Z,66.29
2022-12-31T15:34:44.219Z,65.55
2022-12-31T15:40:53.598Z,65.57
2022-12-31T15:47:08.276Z,65.10
2022-12-31T15:53:29.983Z,65.67
2022-12-31T15:59:34.449Z,65.52
2022-12-31T16:05:43.934Z,64.96
2022-12-31T16:11:50.305Z,64.71
2022-12-31T16:18:08.810Z,65.05
2022-12-31T16:24:31.353Z,65.25
2022-12-31T16:30:36.804Z,65.57
2022-12-31T16:36:39.259Z,65.88
2022-12-31T16:42:44.418Z,65.92
2022-12-31T16:49:23.373Z,65.86
2022-12-31T16:55:29.844Z,66.29
2022-12-31T17:01:35.430Z,65.61
2022-12-31T17:07:41.746Z,65.40
2022-12-31T17:13:46.215Z,66.43
2022-12-31T17:19:50.736Z,65.80
2022-12-31T17:26:12.231Z,65.16
2022-12-31T17:32:37.763Z,68.47
2022-12-31T17:38:40.227Z,68.13
2022-12-31T17:44:46.686Z,67.71
2022-12-31T17:50:53.146Z,68.18
2022-12-31T17:56:55.632Z,67.81
2022-12-31T18:02:58.143Z,67.91
2022-12-31T18:08:59.931Z,67.85
2022-12-31T18:15:01.994Z,67.19
2022-12-31T18:21:08.508Z,67.20
2022-12-31T18:27:19.004Z,66.91
2022-12-31T18:33:25.454Z,67.67
2022-12-31T18:39:27.990Z,67.77
2022-12-31T18:45:30.505Z,68.24
2022-12-31T18:51:33.914Z,67.47
2022-12-31T18:57:36.371Z,66.82
2022-12-31T19:03:38.842Z,67.39
2022-12-31T19:09:46.018Z,69.07
2022-12-31T19:15:51.808Z,70.52
2022-12-31T19:21:54.256Z,71.66
2022-12-31T19:27:56.779Z,71.10
2022-12-31T19:33:59.150Z,71.53
2022-12-31T19:40:03.689Z,69.61
2022-12-31T19:46:06.115Z,70.09
2022-12-31T19:52:08.579Z,69.09
2022-12-31T19:58:20.091Z,70.59
2022-12-31T20:04:22.581Z,70.86
2022-12-31T20:10:25.042Z,71.58
2022-12-31T20:16:27.559Z,71.79
2022-12-31T20:22:29.951Z,73.34
2022-12-31T20:28:32.485Z,71.93
2022-12-31T20:34:34.942Z,71.39
2022-12-31T20:40:42.893Z,74.86
2022-12-31T20:46:48.942Z,72.48
2022-12-31T20:52:51.408Z,74.53
2022-12-31T20:58:53.902Z,75.44
2022-12-31T21:04:56.432Z,75.20
2022-12-31T21:10:59.838Z,73.85
2022-12-31T21:17:02.276Z,72.64
2022-12-31T21:23:04.750Z,72.05
2022-12-31T21:29:07.228Z,72.68
2022-12-31T21:41:51.387Z,76.96
2022-12-31T21:48:11.919Z,75.92
2022-12-31T21:54:34.552Z,75.85
2022-12-31T22:00:56.087Z,75.47
2022-12-31T22:06:58.519Z,76.86
2022-12-31T22:13:01.004Z,76.70
2022-12-31T22:19:03.466Z,74.05
2022-12-31T22:25:06.924Z,75.37
2022-12-31T22:31:22.485Z,75.89
2022-12-31T22:37:55.497Z,77.29
2022-12-31T22:43:55.991Z,78.74
2022-12-31T22:50:02.946Z,78.10
2022-12-31T22:56:10.444Z,80.18
2022-12-31T23:02:12.892Z,78.71
2022-12-31T23:08:22.236Z,78.38
2022-12-31T23:14:44.160Z,76.96
2022-12-31T23:21:04.592Z,79.23
2022-12-31T23:27:07.973Z,75.93
2022-12-31T23:33:20.517Z,79.43
2022-12-31T23:39:22.961Z,77.49
2022-12-31T23:45:31.111Z,76.96
2022-12-31T23:51:36.904Z,78.13
2022-12-31T23:57:39.371Z,80.49
